createdAt,value
2024-03-08T00:00:15.390Z,5.45
2024-03-08T00:02:44.184Z,6.85
2024-03-08T00:05:11.816Z,7.40
2024-03-08T00:07:42.792Z,7.28
2024-03-08T00:10:12.933Z,5.30
2024-03-08T00:12:47.862Z,4.18
2024-03-08T00:15:18.059Z,4.40
2024-03-08T00:20:15.178Z,3.30
2024-03-08T00:22:44.274Z,3.75
2024-03-08T00:25:11.504Z,4.03
2024-03-08T00:27:39.851Z,4.30
2024-03-08T00:30:08.021Z,4.70
2024-03-08T00:32:38.167Z,5.43
2024-03-08T00:35:08.951Z,5.90
2024-03-08T00:37:36.303Z,4.90
2024-03-08T00:40:04.203Z,4.50
2024-03-08T00:42:31.216Z,3.70
2024-03-08T00:44:59.769Z,3.92
2024-03-08T00:47:27.601Z,5.65
2024-03-08T00:49:54.719Z,7.47
2024-03-08T00:52:21.673Z,7.90
2024-03-08T00:54:48.646Z,6.95
2024-03-08T00:57:15.696Z,6.18
2024-03-08T00:59:43.058Z,6.75
2024-03-08T01:02:12.812Z,7.10
2024-03-08T01:04:39.894Z,8.27
2024-03-08T01:07:07.076Z,8.82
2024-03-08T01:09:34.126Z,10.50
2024-03-08T01:12:02.469Z,13.20
2024-03-08T01:14:32.505Z,11.98
2024-03-08T01:17:00.129Z,11.30
2024-03-08T01:19:27.222Z,9.13
2024-03-08T01:21:57.028Z,7.78
2024-03-08T01:24:24.339Z,8.25
2024-03-08T01:26:51.430Z,11.10
2024-03-08T01:29:18.484Z,12.40
2024-03-08T01:31:45.487Z,10.15
2024-03-08T01:34:12.509Z,10.13
2024-03-08T01:36:39.673Z,7.65
2024-03-08T01:39:09.614Z,9.10
2024-03-08T01:41:37.366Z,9.05
2024-03-08T01:44:05.189Z,9.52
2024-03-08T01:46:32.918Z,10.70
2024-03-08T01:49:03.349Z,12.20
2024-03-08T01:51:32.513Z,12.38
2024-03-08T01:54:01.144Z,19.58
2024-03-08T01:56:28.330Z,17.10
2024-03-08T01:58:56.225Z,14.63
2024-03-08T02:01:23.359Z,13.57
2024-03-08T02:03:51.029Z,14.75
2024-03-08T02:06:18.680Z,14.75
2024-03-08T02:08:47.280Z,13.05
2024-03-08T02:11:15.635Z,10.77
2024-03-08T02:13:43.259Z,10.32
2024-03-08T02:16:10.390Z,11.02
2024-03-08T02:18:38.739Z,15.82
2024-03-08T02:21:07.965Z,17.30
2024-03-08T02:23:36.178Z,19.75
2024-03-08T02:26:03.313Z,19.98
2024-03-08T02:28:30.612Z,15.07
2024-03-08T02:30:58.759Z,12.82
2024-03-08T02:33:29.067Z,12.10
2024-03-08T02:35:59.569Z,12.43
2024-03-08T02:38:26.957Z,12.60
2024-03-08T02:40:55.803Z,12.30
2024-03-08T02:43:24.177Z,12.70
2024-03-08T02:45:51.910Z,13.45
2024-03-08T02:48:20.354Z,13.18
2024-03-08T02:50:47.610Z,10.77
2024-03-08T02:53:15.487Z,10.95
2024-03-08T02:55:45.513Z,10.10
2024-03-08T02:58:12.963Z,11.15
2024-03-08T03:00:40.936Z,11.38
2024-03-08T03:03:09.452Z,10.68
2024-03-08T03:05:36.760Z,9.65
2024-03-08T03:08:10.828Z,7.43
2024-03-08T03:10:38.646Z,6.40
2024-03-08T03:13:10.117Z,7.53
2024-03-08T03:15:38.054Z,10.63
2024-03-08T03:18:09.696Z,9.98
2024-03-08T03:20:42.533Z,14.65
2024-03-08T03:23:16.380Z,12.25
2024-03-08T03:25:44.297Z,10.15
2024-03-08T03:28:15.825Z,10.48
2024-03-08T03:30:44.379Z,10.52
2024-03-08T03:33:14.114Z,7.50
2024-03-08T03:35:43.338Z,7.60
2024-03-08T03:38:11.817Z,8.63
2024-03-08T03:40:41.730Z,12.63
2024-03-08T03:43:12.133Z,12.48
2024-03-08T03:45:43.836Z,9.45
2024-03-08T03:48:11.858Z,8.55
2024-03-08T03:50:40.273Z,7.55
2024-03-08T03:53:11.760Z,6.32
2024-03-08T03:55:41.511Z,4.85
2024-03-08T03:58:11.454Z,5.53
2024-03-08T04:00:39.196Z,4.70
2024-03-08T04:03:06.421Z,4.13
2024-03-08T04:05:33.605Z,3.78
2024-03-08T04:08:00.748Z,3.75
2024-03-08T04:10:27.711Z,4.30
2024-03-08T04:12:54.772Z,4.05
2024-03-08T04:15:22.059Z,4.03
2024-03-08T04:17:49.269Z,4.53
2024-03-08T04:20:16.646Z,3.60
2024-03-08T04:22:45.826Z,3.63
2024-03-08T04:25:15.210Z,3.17
2024-03-08T04:27:42.472Z,2.95
2024-03-08T04:30:10.526Z,2.90
2024-03-08T04:32:37.925Z,3.15
2024-03-08T04:35:05.381Z,3.13
2024-03-08T04:37:33.048Z,3.45
2024-03-08T04:40:01.684Z,3.05
2024-03-08T04:42:31.108Z,2.60
2024-03-08T04:44:58.931Z,2.75
2024-03-08T04:47:26.532Z,1.95
2024-03-08T04:49:54.567Z,2.25
2024-03-08T04:52:23.705Z,2.60
2024-03-08T04:54:51.817Z,2.70
2024-03-08T04:57:20.477Z,2.88
2024-03-08T04:59:49.832Z,3.30
2024-03-08T05:02:17.085Z,3.55
2024-03-08T05:04:44.359Z,3.88
2024-03-08T05:07:11.466Z,3.50
2024-03-08T05:09:39.157Z,3.65
2024-03-08T05:12:06.887Z,2.95
2024-03-08T05:14:34.246Z,3.40
2024-03-08T05:17:02.106Z,3.70
2024-03-08T05:19:34.615Z,3.95
2024-03-08T05:22:05.282Z,3.80
2024-03-08T05:24:32.270Z,3.87
2024-03-08T05:29:52.034Z,5.10
2024-03-08T05:32:19.042Z,6.38
2024-03-08T05:34:46.072Z,7.40
2024-03-08T05:37:13.116Z,6.60
2024-03-08T05:39:40.105Z,6.20
2024-03-08T05:42:10.409Z,5.78
2024-03-08T05:44:37.501Z,5.50
2024-03-08T05:47:04.599Z,5.28
2024-03-08T05:49:34.539Z,9.70
2024-03-08T05:52:05.252Z,11.33
2024-03-08T05:54:34.350Z,14.93
2024-03-08T05:57:01.618Z,14.55
2024-03-08T05:59:28.595Z,15.75
2024-03-08T06:01:55.730Z,16.73
2024-03-08T06:04:25.095Z,15.85
2024-03-08T06:06:53.138Z,14.05
2024-03-08T06:09:25.166Z,12.77
2024-03-08T06:11:56.433Z,11.77
2024-03-08T06:16:51.968Z,10.27
2024-03-08T06:19:19.487Z,9.10
2024-03-08T06:21:46.953Z,7.47
2024-03-08T06:24:13.986Z,7.55
2024-03-08T06:26:43.133Z,6.72
2024-03-08T06:29:10.217Z,5.18
2024-03-08T06:31:40.679Z,4.75
2024-03-08T06:34:09.724Z,5.20
2024-03-08T06:36:39.502Z,5.50
2024-03-08T06:39:12.053Z,6.25
2024-03-08T06:41:39.367Z,6.05
2024-03-08T06:44:06.713Z,6.28
2024-03-08T06:46:35.188Z,7.70
2024-03-08T06:49:02.615Z,8.63
2024-03-08T06:51:29.869Z,10.93
2024-03-08T06:53:56.899Z,11.68
2024-03-08T06:56:23.955Z,12.52
2024-03-08T06:58:51.502Z,12.68
2024-03-08T07:01:18.755Z,12.63
2024-03-08T07:03:46.190Z,13.60
2024-03-08T07:06:13.587Z,16.42
2024-03-08T07:08:41.297Z,17.15
2024-03-08T07:11:09.608Z,17.80
2024-03-08T07:13:36.573Z,16.48
2024-03-08T07:16:03.677Z,14.98
2024-03-08T07:18:31.833Z,11.27
2024-03-08T07:20:59.473Z,9.77
2024-03-08T07:23:45.339Z,6.70
2024-03-08T07:26:12.417Z,5.72
2024-03-08T07:28:39.446Z,3.72
2024-03-08T07:31:18.834Z,3.53
2024-03-08T07:33:46.195Z,3.40
2024-03-08T07:36:13.493Z,4.35
2024-03-08T07:38:40.669Z,5.05
2024-03-08T07:41:07.714Z,5.22
2024-03-08T07:43:34.818Z,4.35
2024-03-08T07:46:01.932Z,5.03
2024-03-08T07:48:29.470Z,4.38
2024-03-08T07:50:57.477Z,3.97
2024-03-08T07:53:28.864Z,4.40
2024-03-08T07:55:55.918Z,5.20
2024-03-08T07:58:22.985Z,5.70
2024-03-08T08:00:50.576Z,5.63
2024-03-08T08:03:19.596Z,4.80
2024-03-08T08:05:48.306Z,6.00
2024-03-08T08:08:15.292Z,5.13
2024-03-08T08:10:43.579Z,3.95
2024-03-08T08:13:10.667Z,3.70
2024-03-08T08:15:37.727Z,4.00
2024-03-08T08:18:07.700Z,3.75
2024-03-08T08:20:35.349Z,3.80
2024-03-08T08:23:03.538Z,4.47
2024-03-08T08:25:30.922Z,5.10
2024-03-08T08:27:58.219Z,5.50
2024-03-08T08:30:25.237Z,5.50
2024-03-08T08:32:52.369Z,8.13
2024-03-08T08:35:21.276Z,9.77
2024-03-08T08:37:48.613Z,6.82
2024-03-08T08:40:16.780Z,5.78
2024-03-08T08:42:44.358Z,6.28
2024-03-08T08:45:16.767Z,5.95
2024-03-08T08:47:50.692Z,5.65
2024-03-08T08:50:25.484Z,5.97
2024-03-08T08:52:54.723Z,5.30
2024-03-08T08:55:24.193Z,4.72
2024-03-08T08:57:54.630Z,4.97
2024-03-08T09:00:22.979Z,5.60
2024-03-08T09:02:50.275Z,5.25
2024-03-08T09:05:18.102Z,6.35
2024-03-08T09:07:48.369Z,4.30
2024-03-08T09:10:17.640Z,3.42
2024-03-08T09:12:46.174Z,3.40
2024-03-08T09:15:13.739Z,3.55
2024-03-08T09:17:42.080Z,3.22
2024-03-08T09:20:12.104Z,2.95
2024-03-08T09:22:39.414Z,2.80
2024-03-08T09:25:07.185Z,3.20
2024-03-08T09:27:38.465Z,3.15
2024-03-08T09:30:09.265Z,3.40
2024-03-08T09:32:38.395Z,4.03
2024-03-08T09:35:09.018Z,3.22
2024-03-08T09:37:36.828Z,2.97
2024-03-08T09:40:11.154Z,2.90
2024-03-08T09:42:41.811Z,3.60
2024-03-08T09:45:16.898Z,3.20
2024-03-08T09:47:45.285Z,3.20
2024-03-08T09:50:14.159Z,3.83
2024-03-08T09:52:42.405Z,3.78
2024-03-08T09:55:13.316Z,3.38
2024-03-08T10:00:25.690Z,3.90
2024-03-08T10:02:57.324Z,2.85
2024-03-08T10:05:24.442Z,3.40
2024-03-08T10:07:51.786Z,3.15
2024-03-08T10:10:18.965Z,5.10
2024-03-08T10:12:47.196Z,7.97
2024-03-08T10:15:14.187Z,9.45
2024-03-08T10:17:41.327Z,6.70
2024-03-08T10:20:20.485Z,4.65
2024-03-08T10:22:58.404Z,3.83
2024-03-08T10:25:34.631Z,3.33
2024-03-08T10:28:05.348Z,3.30
2024-03-08T10:30:33.328Z,3.40
2024-03-08T10:33:03.512Z,3.13
2024-03-08T10:35:30.609Z,2.30
2024-03-08T10:38:02.502Z,3.50
2024-03-08T10:40:31.329Z,3.38
2024-03-08T10:43:00.144Z,3.53
2024-03-08T10:45:38.336Z,3.08
2024-03-08T10:48:40.057Z,3.00
2024-03-08T10:51:08.897Z,3.30
2024-03-08T10:53:38.598Z,3.55
2024-03-08T10:56:09.983Z,3.63
2024-03-08T10:58:38.309Z,3.30
2024-03-08T11:01:07.775Z,2.90
2024-03-08T11:03:47.363Z,3.40
2024-03-08T11:06:17.514Z,3.22
2024-03-08T11:08:46.125Z,3.00
2024-03-08T11:11:43.867Z,3.47
2024-03-08T11:14:45.374Z,3.85
2024-03-08T11:17:12.430Z,3.72
2024-03-08T11:19:42.374Z,3.58
2024-03-08T11:22:24.828Z,3.30
2024-03-08T11:24:51.919Z,3.13
2024-03-08T11:27:18.976Z,3.85
2024-03-08T11:29:47.335Z,6.43
2024-03-08T11:32:23.470Z,6.10
2024-03-08T11:34:51.585Z,3.28
2024-03-08T11:37:22.090Z,5.15
2024-03-08T11:39:53.943Z,4.35
2024-03-08T11:42:23.976Z,6.57
2024-03-08T11:44:52.365Z,6.73
2024-03-08T11:47:22.448Z,5.03
2024-03-08T11:49:49.932Z,4.20
2024-03-08T11:52:19.056Z,7.60
2024-03-08T11:54:55.653Z,7.43
2024-03-08T11:57:25.563Z,9.88
2024-03-08T11:59:58.714Z,7.38
2024-03-08T12:02:27.135Z,4.10
2024-03-08T12:05:02.097Z,4.47
2024-03-08T12:07:29.589Z,2.72
2024-03-08T12:10:19.881Z,2.92
2024-03-08T12:12:53.597Z,2.72
2024-03-08T12:15:22.619Z,3.25
2024-03-08T12:17:52.892Z,2.40
2024-03-08T12:20:23.368Z,3.15
2024-03-08T12:22:55.455Z,2.60
2024-03-08T12:25:40.405Z,2.40
2024-03-08T12:28:12.193Z,2.80
2024-03-08T12:30:49.362Z,3.03
2024-03-08T12:33:16.818Z,2.90
2024-03-08T12:35:56.368Z,2.42
2024-03-08T12:38:27.198Z,3.40
2024-03-08T12:41:02.310Z,3.22
2024-03-08T12:43:33.618Z,3.42
2024-03-08T12:46:03.203Z,3.67
2024-03-08T12:48:35.066Z,3.60
2024-03-08T12:51:04.391Z,2.90
2024-03-08T12:53:31.889Z,2.88
2024-03-08T12:55:59.225Z,2.63
2024-03-08T12:58:27.326Z,3.38
2024-03-08T13:00:54.634Z,3.20
2024-03-08T13:03:24.451Z,3.33
2024-03-08T13:05:52.438Z,3.50
2024-03-08T13:08:19.472Z,3.05
2024-03-08T13:10:49.683Z,3.00
2024-03-08T13:13:18.766Z,3.45
2024-03-08T13:15:46.617Z,3.67
2024-03-08T13:18:16.678Z,3.40
2024-03-08T13:20:48.247Z,2.83
2024-03-08T13:23:15.845Z,2.50
2024-03-08T13:25:43.522Z,3.00
2024-03-08T13:28:10.692Z,2.78
2024-03-08T13:30:40.243Z,2.80
2024-03-08T13:33:08.543Z,2.38
2024-03-08T13:35:38.081Z,2.20
2024-03-08T13:38:06.426Z,3.50
2024-03-08T13:40:34.026Z,3.40
2024-03-08T13:43:02.728Z,2.92
2024-03-08T13:45:35.757Z,2.30
2024-03-08T13:50:51.343Z,2.20
2024-03-08T13:53:18.550Z,1.70
2024-03-08T13:55:47.942Z,1.63
2024-03-08T13:58:15.296Z,1.90
2024-03-08T14:00:45.739Z,1.85
2024-03-08T14:03:13.907Z,1.70
2024-03-08T14:05:44.184Z,1.92
2024-03-08T14:08:13.350Z,1.90
2024-03-08T14:10:40.826Z,2.13
2024-03-08T14:13:08.300Z,1.90
2024-03-08T14:15:36.876Z,2.00
2024-03-08T14:18:08.468Z,2.00
2024-03-08T14:20:35.726Z,1.83
2024-03-08T14:23:03.295Z,1.70
2024-03-08T14:25:31.297Z,1.80
2024-03-08T14:28:08.365Z,1.90
2024-03-08T14:30:39.770Z,2.25
2024-03-08T14:33:10.929Z,1.88
2024-03-08T14:35:41.868Z,1.90
2024-03-08T14:38:13.602Z,1.75
2024-03-08T14:40:48.185Z,1.73
2024-03-08T14:43:16.291Z,2.10
2024-03-08T14:45:43.548Z,1.73
2024-03-08T14:48:13.157Z,2.17
2024-03-08T14:50:41.891Z,3.13
2024-03-08T14:53:08.937Z,2.95
2024-03-08T14:55:36.376Z,2.88
2024-03-08T14:58:05.573Z,3.10
2024-03-08T15:00:35.452Z,3.40
2024-03-08T15:03:04.373Z,2.97
2024-03-08T15:05:33.674Z,2.58
2024-03-08T15:08:11.513Z,2.97
2024-03-08T15:10:44.465Z,2.40
2024-03-08T15:13:16.960Z,2.60
2024-03-08T15:15:46.516Z,3.17
2024-03-08T15:18:13.697Z,2.42
2024-03-08T15:20:40.806Z,2.00
2024-03-08T15:23:11.167Z,1.88
2024-03-08T15:25:40.318Z,2.00
2024-03-08T15:28:14.301Z,1.60
2024-03-08T15:30:44.058Z,1.35
2024-03-08T15:33:13.945Z,1.65
2024-03-08T15:35:41.081Z,1.60
2024-03-08T15:38:11.404Z,1.63
2024-03-08T15:40:40.145Z,1.75
2024-03-08T15:43:07.119Z,1.63
2024-03-08T15:45:38.053Z,1.80
2024-03-08T15:48:06.932Z,2.20
2024-03-08T15:50:37.457Z,2.30
2024-03-08T15:53:05.422Z,2.35
2024-03-08T15:55:33.599Z,2.28
2024-03-08T15:58:03.158Z,1.90
2024-03-08T16:00:46.335Z,2.53
2024-03-08T16:03:16.299Z,2.75
2024-03-08T16:05:46.958Z,3.08
2024-03-08T16:08:19.448Z,3.22
2024-03-08T16:10:51.206Z,2.53
2024-03-08T16:13:20.394Z,2.67
2024-03-08T16:15:50.563Z,2.67
2024-03-08T16:18:22.617Z,2.72
2024-03-08T16:23:25.398Z,2.72
2024-03-08T16:25:54.130Z,3.10
2024-03-08T16:28:27.258Z,3.10
2024-03-08T16:30:57.616Z,3.72
2024-03-08T16:33:29.365Z,5.25
2024-03-08T16:35:58.459Z,4.45
2024-03-08T16:38:25.733Z,3.75
2024-03-08T16:40:53.906Z,3.30
2024-03-08T16:43:21.176Z,3.00
2024-03-08T16:45:52.034Z,2.78
2024-03-08T16:48:20.442Z,2.72
2024-03-08T16:50:47.738Z,2.80
2024-03-08T16:53:16.264Z,2.95
2024-03-08T16:55:43.438Z,4.10
2024-03-08T16:58:16.724Z,4.50
2024-03-08T17:00:44.024Z,3.97
2024-03-08T17:03:14.445Z,4.07
2024-03-08T17:05:47.286Z,4.90
2024-03-08T17:08:18.258Z,4.78
2024-03-08T17:10:49.320Z,5.63
2024-03-08T17:13:19.436Z,5.60
2024-03-08T17:15:55.298Z,6.70
2024-03-08T17:18:25.898Z,8.02
2024-03-08T17:20:56.103Z,8.57
2024-03-08T17:23:23.949Z,9.95
2024-03-08T17:25:51.064Z,10.50
2024-03-08T17:28:18.182Z,10.68
2024-03-08T17:30:47.657Z,9.50
2024-03-08T17:33:22.989Z,9.88
2024-03-08T17:35:51.781Z,10.60
2024-03-08T17:38:22.953Z,10.43
2024-03-08T17:40:50.175Z,10.02
2024-03-08T17:43:22.348Z,10.48
2024-03-08T17:45:50.909Z,12.23
2024-03-08T17:48:18.919Z,12.05
2024-03-08T17:50:55.180Z,12.77
2024-03-08T17:53:22.627Z,9.98
2024-03-08T17:55:53.013Z,9.77
2024-03-08T17:58:21.461Z,8.88
2024-03-08T18:00:53.236Z,9.70
2024-03-08T18:03:22.336Z,11.18
2024-03-08T18:05:49.417Z,11.35
2024-03-08T18:08:20.001Z,12.80
2024-03-08T18:10:50.069Z,12.18
2024-03-08T18:13:17.730Z,12.60
2024-03-08T18:15:48.025Z,13.13
2024-03-08T18:20:46.225Z,14.45
2024-03-08T18:23:14.450Z,14.40
2024-03-08T18:25:41.646Z,14.45
2024-03-08T18:28:10.993Z,15.32
2024-03-08T18:30:40.056Z,14.57
2024-03-08T18:33:08.606Z,14.85
2024-03-08T18:41:21.175Z,19.23
2024-03-08T18:43:48.376Z,19.05
2024-03-08T18:46:15.459Z,19.98
2024-03-08T18:48:43.632Z,19.83
2024-03-08T18:51:11.511Z,18.30
2024-03-08T18:53:42.954Z,16.83
2024-03-08T18:56:10.322Z,13.73
2024-03-08T18:58:43.125Z,14.13
2024-03-08T19:01:14.307Z,12.02
2024-03-08T19:03:42.815Z,11.45
2024-03-08T19:06:11.603Z,10.63
2024-03-08T19:08:39.231Z,11.23
2024-03-08T19:11:06.429Z,10.98
2024-03-08T19:13:34.292Z,10.32
2024-03-08T19:16:01.422Z,9.65
2024-03-08T19:18:30.284Z,10.27
2024-03-08T19:21:00.807Z,10.32
2024-03-08T19:23:28.516Z,10.07
2024-03-08T19:25:55.555Z,9.65
2024-03-08T19:28:23.112Z,10.10
2024-03-08T19:30:53.027Z,9.60
2024-03-08T19:33:22.246Z,12.18
2024-03-08T19:35:49.856Z,9.75
2024-03-08T19:38:17.212Z,9.65
2024-03-08T19:40:45.908Z,9.35
2024-03-08T19:43:17.134Z,8.82
2024-03-08T19:45:45.159Z,8.77
2024-03-08T19:48:22.658Z,9.32
2024-03-08T19:50:52.378Z,8.45
2024-03-08T19:53:20.700Z,8.35
2024-03-08T19:55:52.758Z,7.35
2024-03-08T19:58:21.774Z,7.30
2024-03-08T20:00:49.793Z,8.18
2024-03-08T20:03:36.939Z,6.72
2024-03-08T20:06:07.407Z,7.07
2024-03-08T20:08:35.219Z,8.07
2024-03-08T20:11:05.192Z,5.95
2024-03-08T20:13:36.216Z,7.35
2024-03-08T20:16:06.889Z,7.63
2024-03-08T20:18:40.944Z,7.72
2024-03-08T20:21:29.283Z,7.25
2024-03-08T20:23:58.645Z,8.13
2024-03-08T20:26:26.929Z,8.52
2024-03-08T20:28:53.984Z,6.88
2024-03-08T20:31:21.058Z,7.47
2024-03-08T20:33:48.266Z,7.20
2024-03-08T20:36:15.279Z,8.70
2024-03-08T20:38:44.349Z,7.57
2024-03-08T20:41:13.900Z,7.05
2024-03-08T20:43:42.956Z,7.75
2024-03-08T20:46:12.714Z,6.93
2024-03-08T20:48:41.350Z,6.18
2024-03-08T20:51:08.638Z,6.72
2024-03-08T20:53:36.165Z,6.53
2024-03-08T20:56:04.349Z,6.30
2024-03-08T20:58:32.336Z,6.47
2024-03-08T21:01:00.401Z,6.28
2024-03-08T21:03:28.751Z,7.03
2024-03-08T21:05:56.944Z,7.30
2024-03-08T21:08:28.849Z,7.07
2024-03-08T21:10:57.099Z,7.13
2024-03-08T21:13:27.748Z,7.00
2024-03-08T21:15:55.621Z,7.03
2024-03-08T21:18:23.761Z,6.88
2024-03-08T21:20:52.287Z,6.95
2024-03-08T21:23:20.755Z,7.22
2024-03-08T21:25:48.008Z,7.57
2024-03-08T21:28:18.986Z,8.07
2024-03-08T21:30:49.250Z,7.63
2024-03-08T21:33:16.473Z,8.10
2024-03-08T21:35:44.034Z,7.57
2024-03-08T21:38:12.259Z,7.78
2024-03-08T21:40:52.822Z,8.13
2024-03-08T21:43:28.637Z,8.00
2024-03-08T21:45:55.957Z,8.05
2024-03-08T21:48:23.578Z,8.40
2024-03-08T21:50:51.406Z,8.18
2024-03-08T21:53:26.408Z,7.70
2024-03-08T21:55:58.523Z,7.22
2024-03-08T21:58:25.915Z,7.53
2024-03-08T22:00:53.908Z,16.73
2024-03-08T22:03:23.759Z,8.02
2024-03-08T22:05:51.790Z,6.93
2024-03-08T22:08:20.526Z,6.60
2024-03-08T22:10:49.162Z,7.25
2024-03-08T22:13:16.534Z,7.60
2024-03-08T22:15:49.751Z,8.00
2024-03-08T22:18:17.633Z,7.43
2024-03-08T22:20:47.530Z,7.68
2024-03-08T22:23:18.194Z,7.45
2024-03-08T22:25:48.400Z,7.38
2024-03-08T22:28:16.518Z,6.95
2024-03-08T22:30:43.984Z,6.80
2024-03-08T22:33:11.279Z,7.68
2024-03-08T22:35:38.594Z,7.65
2024-03-08T22:38:08.792Z,7.35
2024-03-08T22:40:36.262Z,6.95
2024-03-08T22:43:03.337Z,6.43
2024-03-08T22:45:32.901Z,7.40
2024-03-08T22:48:00.705Z,6.68
2024-03-08T22:50:28.465Z,7.13
2024-03-08T22:52:57.082Z,6.97
2024-03-08T22:55:25.676Z,6.95
2024-03-08T22:57:53.305Z,7.88
2024-03-08T23:00:27.682Z,27.17
2024-03-08T23:02:57.058Z,7.32
2024-03-08T23:05:25.395Z,6.38
2024-03-08T23:07:54.292Z,6.60
2024-03-08T23:10:31.398Z,6.55
2024-03-08T23:12:59.313Z,6.93
2024-03-08T23:15:30.301Z,7.00
2024-03-08T23:17:58.060Z,6.22
2024-03-08T23:20:33.814Z,5.70
2024-03-08T23:23:06.044Z,5.78
2024-03-08T23:25:36.176Z,6.60
2024-03-08T23:28:08.476Z,6.18
2024-03-08T23:30:41.368Z,5.72
2024-03-08T23:33:10.851Z,5.82
2024-03-08T23:35:40.277Z,6.50
2024-03-08T23:38:09.205Z,5.75
2024-03-08T23:40:40.339Z,6.10
2024-03-08T23:43:09.775Z,5.78
2024-03-08T23:45:39.467Z,5.90
2024-03-08T23:48:12.069Z,6.27
2024-03-08T23:50:39.469Z,5.65
2024-03-08T23:53:09.705Z,5.60
2024-03-08T23:55:40.019Z,5.95
2024-03-08T23:58:12.912Z,24.15
